sensor_id;sensor_type;location;lat;lon;timestamp;P1;durP1;ratioP1;P2;durP2;ratioP2
25443;SDS011;13368;52.346;4.678;2023-04-19T00:00:01;18.6;;;12.0;;
25443;SDS011;13368;52.346;4.678;2023-04-19T00:05:00;18.0;;;11.8;;
25443;SDS011;13368;52.346;4.678;2023-04-19T00:10:00;17.5;;;11.4;;
25443;SDS011;13368;52.346;4.678;2023-04-19T00:15:00;19.6;;;11.4;;
25443;SDS011;13368;52.346;4.678;2023-04-19T00:20:00;18.5;;;12.0;;
25443;SDS011;13368;52.346;4.678;2023-04-19T00:25:00;18.1;;;11.8;;
25443;SDS011;13368;52.346;4.678;2023-04-19T00:30:00;18.0;;;10.8;;
25443;SDS011;13368;52.346;4.678;2023-04-19T00:35:00;19.5;;;11.7;;
25443;SDS011;13368;52.346;4.678;2023-04-19T00:40:00;21.3;;;11.8;;
25443;SDS011;13368;52.346;4.678;2023-04-19T00:45:00;18.6;;;11.6;;
25443;SDS011;13368;52.346;4.678;2023-04-19T00:50:00;20.7;;;11.9;;
25443;SDS011;13368;52.346;4.678;2023-04-19T00:55:00;19.0;;;12.4;;
25443;SDS011;13368;52.346;4.678;2023-04-19T01:00:00;18.5;;;11.7;;
25443;SDS011;13368;52.346;4.678;2023-04-19T01:05:00;20.1;;;12.2;;
25443;SDS011;13368;52.346;4.678;2023-04-19T01:10:00;20.8;;;13.3;;
25443;SDS011;13368;52.346;4.678;2023-04-19T01:15:00;20.4;;;12.8;;
25443;SDS011;13368;52.346;4.678;2023-04-19T01:20:00;21.2;;;12.7;;
25443;SDS011;13368;52.346;4.678;2023-04-19T01:25:00;20.5;;;12.8;;
25443;SDS011;13368;52.346;4.678;2023-04-19T01:30:00;21.5;;;13.8;;
25443;SDS011;13368;52.346;4.678;2023-04-19T01:35:00;21.3;;;14.1;;
25443;SDS011;13368;52.346;4.678;2023-04-19T01:40:00;22.1;;;14.2;;
25443;SDS011;13368;52.346;4.678;2023-04-19T01:45:00;24.1;;;14.4;;
25443;SDS011;13368;52.346;4.678;2023-04-19T01:50:00;21.3;;;14.1;;
25443;SDS011;13368;52.346;4.678;2023-04-19T01:55:00;22.8;;;14.1;;
25443;SDS011;13368;52.346;4.678;2023-04-19T02:00:00;25.8;;;15.0;;
25443;SDS011;13368;52.346;4.678;2023-04-19T02:05:00;26.5;;;15.3;;
25443;SDS011;13368;52.346;4.678;2023-04-19T02:10:00;27.1;;;15.9;;
25443;SDS011;13368;52.346;4.678;2023-04-19T02:15:00;24.7;;;14.3;;
25443;SDS011;13368;52.346;4.678;2023-04-19T02:20:00;25.0;;;15.2;;
25443;SDS011;13368;52.346;4.678;2023-04-19T02:25:00;25.1;;;15.2;;
25443;SDS011;13368;52.346;4.678;2023-04-19T02:30:00;25.3;;;15.5;;
25443;SDS011;13368;52.346;4.678;2023-04-19T02:35:00;26.7;;;16.2;;
25443;SDS011;13368;52.346;4.678;2023-04-19T02:40:00;25.7;;;15.4;;
25443;SDS011;13368;52.346;4.678;2023-04-19T02:45:00;27.9;;;15.2;;
25443;SDS011;13368;52.346;4.678;2023-04-19T02:50:00;27.6;;;16.0;;
25443;SDS011;13368;52.346;4.678;2023-04-19T02:55:00;28.2;;;16.8;;
25443;SDS011;13368;52.346;4.678;2023-04-19T03:00:00;24.4;;;14.9;;
25443;SDS011;13368;52.346;4.678;2023-04-19T03:05:00;23.7;;;15.3;;
25443;SDS011;13368;52.346;4.678;2023-04-19T03:10:00;26.9;;;16.2;;
25443;SDS011;13368;52.346;4.678;2023-04-19T03:15:00;27.5;;;15.8;;
25443;SDS011;13368;52.346;4.678;2023-04-19T03:20:00;28.5;;;15.7;;
25443;SDS011;13368;52.346;4.678;2023-04-19T03:25:00;26.3;;;15.6;;
25443;SDS011;13368;52.346;4.678;2023-04-19T03:30:00;24.6;;;14.9;;
25443;SDS011;13368;52.346;4.678;2023-04-19T03:35:00;27.0;;;15.6;;
25443;SDS011;13368;52.346;4.678;2023-04-19T03:40:00;26.2;;;15.0;;
25443;SDS011;13368;52.346;4.678;2023-04-19T03:45:00;23.3;;;14.7;;
25443;SDS011;13368;52.346;4.678;2023-04-19T03:50:00;28.6;;;14.5;;
25443;SDS011;13368;52.346;4.678;2023-04-19T03:55:00;24.9;;;14.6;;
25443;SDS011;13368;52.346;4.678;2023-04-19T04:00:00;24.3;;;14.1;;
25443;SDS011;13368;52.346;4.678;2023-04-19T04:05:00;25.4;;;15.0;;
25443;SDS011;13368;52.346;4.678;2023-04-19T04:10:00;25.9;;;15.1;;
25443;SDS011;13368;52.346;4.678;2023-04-19T04:15:00;24.6;;;14.8;;
25443;SDS011;13368;52.346;4.678;2023-04-19T04:20:00;25.1;;;15.3;;
25443;SDS011;13368;52.346;4.678;2023-04-19T04:25:00;25.9;;;14.0;;
25443;SDS011;13368;52.346;4.678;2023-04-19T04:30:00;26.2;;;14.7;;
25443;SDS011;13368;52.346;4.678;2023-04-19T04:35:00;23.0;;;13.4;;
25443;SDS011;13368;52.346;4.678;2023-04-19T04:40:00;24.1;;;14.1;;
25443;SDS011;13368;52.346;4.678;2023-04-19T04:45:00;25.2;;;13.6;;
25443;SDS011;13368;52.346;4.678;2023-04-19T04:50:00;20.5;;;13.1;;
25443;SDS011;13368;52.346;4.678;2023-04-19T04:55:00;21.0;;;12.3;;
25443;SDS011;13368;52.346;4.678;2023-04-19T05:00:00;20.5;;;12.0;;
25443;SDS011;13368;52.346;4.678;2023-04-19T05:05:00;25.7;;;12.4;;
25443;SDS011;13368;52.346;4.678;2023-04-19T05:10:00;20.9;;;11.6;;
25443;SDS011;13368;52.346;4.678;2023-04-19T05:15:00;21.0;;;12.3;;
25443;SDS011;13368;52.346;4.678;2023-04-19T05:20:00;17.9;;;11.5;;
25443;SDS011;13368;52.346;4.678;2023-04-19T05:25:00;17.1;;;10.8;;
25443;SDS011;13368;52.346;4.678;2023-04-19T05:30:00;19.1;;;10.6;;
25443;SDS011;13368;52.346;4.678;2023-04-19T05:35:00;19.1;;;11.1;;
25443;SDS011;13368;52.346;4.678;2023-04-19T05:40:00;16.7;;;10.8;;
25443;SDS011;13368;52.346;4.678;2023-04-19T05:45:00;18.4;;;10.5;;
25443;SDS011;13368;52.346;4.678;2023-04-19T05:50:00;18.2;;;11.2;;
25443;SDS011;13368;52.346;4.678;2023-04-19T05:55:00;19.6;;;11.0;;
25443;SDS011;13368;52.346;4.678;2023-04-19T06:00:00;17.7;;;11.0;;
25443;SDS011;13368;52.346;4.678;2023-04-19T06:05:00;18.8;;;11.4;;
25443;SDS011;13368;52.346;4.678;2023-04-19T06:10:00;15.6;;;10.8;;
25443;SDS011;13368;52.346;4.678;2023-04-19T06:15:00;17.5;;;10.4;;
25443;SDS011;13368;52.346;4.678;2023-04-19T06:20:00;16.5;;;10.7;;
25443;SDS011;13368;52.346;4.678;2023-04-19T06:25:00;17.0;;;9.9;;
25443;SDS011;13368;52.346;4.678;2023-04-19T06:30:00;14.4;;;9.3;;
25443;SDS011;13368;52.346;4.678;2023-04-19T06:35:00;13.3;;;9.2;;
25443;SDS011;13368;52.346;4.678;2023-04-19T06:40:00;14.2;;;9.4;;
25443;SDS011;13368;52.346;4.678;2023-04-19T06:45:00;17.4;;;9.2;;
25443;SDS011;13368;52.346;4.678;2023-04-19T06:50:00;19.2;;;10.3;;
25443;SDS011;13368;52.346;4.678;2023-04-19T06:55:00;17.2;;;9.2;;
25443;SDS011;13368;52.346;4.678;2023-04-19T07:00:00;15.7;;;9.2;;
25443;SDS011;13368;52.346;4.678;2023-04-19T07:05:00;15.0;;;8.5;;
25443;SDS011;13368;52.346;4.678;2023-04-19T07:10:00;15.0;;;7.9;;
25443;SDS011;13368;52.346;4.678;2023-04-19T07:15:00;11.8;;;7.5;;
25443;SDS011;13368;52.346;4.678;2023-04-19T07:20:00;15.4;;;6.9;;
25443;SDS011;13368;52.346;4.678;2023-04-19T07:25:00;11.5;;;7.4;;
25443;SDS011;13368;52.346;4.678;2023-04-19T07:30:01;12.1;;;6.7;;
25443;SDS011;13368;52.346;4.678;2023-04-19T07:35:00;12.1;;;6.6;;
25443;SDS011;13368;52.346;4.678;2023-04-19T07:40:00;11.8;;;6.9;;
25443;SDS011;13368;52.346;4.678;2023-04-19T07:45:00;10.8;;;6.5;;
25443;SDS011;13368;52.346;4.678;2023-04-19T07:50:00;11.6;;;7.0;;
25443;SDS011;13368;52.346;4.678;2023-04-19T07:55:00;10.7;;;6.6;;
25443;SDS011;13368;52.346;4.678;2023-04-19T08:00:00;12.8;;;6.8;;
25443;SDS011;13368;52.346;4.678;2023-04-19T08:05:00;10.0;;;6.1;;
25443;SDS011;13368;52.346;4.678;2023-04-19T08:10:00;13.6;;;6.7;;
25443;SDS011;13368;52.346;4.678;2023-04-19T08:15:00;11.3;;;6.1;;
25443;SDS011;13368;52.346;4.678;2023-04-19T08:20:00;11.6;;;5.8;;
25443;SDS011;13368;52.346;4.678;2023-04-19T08:25:00;9.7;;;5.6;;
25443;SDS011;13368;52.346;4.678;2023-04-19T08:30:00;9.3;;;5.4;;
25443;SDS011;13368;52.346;4.678;2023-04-19T08:35:00;10.7;;;5.8;;
25443;SDS011;13368;52.346;4.678;2023-04-19T08:40:00;11.5;;;6.1;;
25443;SDS011;13368;52.346;4.678;2023-04-19T08:45:00;10.3;;;5.8;;
25443;SDS011;13368;52.346;4.678;2023-04-19T08:50:00;8.2;;;5.4;;
25443;SDS011;13368;52.346;4.678;2023-04-19T08:55:00;9.6;;;5.1;;
25443;SDS011;13368;52.346;4.678;2023-04-19T09:00:00;7.5;;;4.9;;
25443;SDS011;13368;52.346;4.678;2023-04-19T09:05:00;7.6;;;4.6;;
25443;SDS011;13368;52.346;4.678;2023-04-19T09:10:04;5.7;;;4.3;;
25443;SDS011;13368;52.346;4.678;2023-04-19T09:15:00;5.7;;;4.1;;
25443;SDS011;13368;52.346;4.678;2023-04-19T09:20:00;6.2;;;4.0;;
25443;SDS011;13368;52.346;4.678;2023-04-19T09:25:00;6.9;;;4.5;;
25443;SDS011;13368;52.346;4.678;2023-04-19T09:30:00;7.4;;;3.7;;
25443;SDS011;13368;52.346;4.678;2023-04-19T09:35:00;10.6;;;3.7;;
25443;SDS011;13368;52.346;4.678;2023-04-19T09:40:00;6.1;;;3.9;;
25443;SDS011;13368;52.346;4.678;2023-04-19T09:45:00;5.6;;;3.5;;
25443;SDS011;13368;52.346;4.678;2023-04-19T09:50:03;6.9;;;3.6;;
25443;SDS011;13368;52.346;4.678;2023-04-19T09:55:01;8.6;;;3.9;;
25443;SDS011;13368;52.346;4.678;2023-04-19T10:00:00;8.0;;;4.2;;
25443;SDS011;13368;52.346;4.678;2023-04-19T10:05:00;7.0;;;4.2;;
25443;SDS011;13368;52.346;4.678;2023-04-19T10:10:00;6.9;;;4.0;;
25443;SDS011;13368;52.346;4.678;2023-04-19T10:15:00;6.5;;;3.7;;
25443;SDS011;13368;52.346;4.678;2023-04-19T10:20:02;6.5;;;3.7;;
25443;SDS011;13368;52.346;4.678;2023-04-19T10:25:06;6.4;;;3.6;;
25443;SDS011;13368;52.346;4.678;2023-04-19T10:30:00;6.7;;;4.2;;
25443;SDS011;13368;52.346;4.678;2023-04-19T10:35:00;6.8;;;3.9;;
25443;SDS011;13368;52.346;4.678;2023-04-19T10:40:00;4.8;;;3.5;;
25443;SDS011;13368;52.346;4.678;2023-04-19T10:50:02;5.2;;;3.7;;
25443;SDS011;13368;52.346;4.678;2023-04-19T10:55:00;5.5;;;3.3;;
25443;SDS011;13368;52.346;4.678;2023-04-19T11:05:00;6.6;;;3.3;;
25443;SDS011;13368;52.346;4.678;2023-04-19T11:10:00;5.7;;;3.3;;
25443;SDS011;13368;52.346;4.678;2023-04-19T11:15:00;7.9;;;3.7;;
25443;SDS011;13368;52.346;4.678;2023-04-19T11:20:00;6.9;;;3.4;;
25443;SDS011;13368;52.346;4.678;2023-04-19T11:25:04;7.9;;;3.7;;
25443;SDS011;13368;52.346;4.678;2023-04-19T11:30:01;6.0;;;4.1;;
25443;SDS011;13368;52.346;4.678;2023-04-19T11:35:04;10.2;;;4.6;;
25443;SDS011;13368;52.346;4.678;2023-04-19T11:40:00;6.8;;;4.1;;
25443;SDS011;13368;52.346;4.678;2023-04-19T11:45:00;6.4;;;4.3;;
25443;SDS011;13368;52.346;4.678;2023-04-19T12:00:01;6.8;;;4.4;;
25443;SDS011;13368;52.346;4.678;2023-04-19T12:05:05;6.8;;;4.1;;
25443;SDS011;13368;52.346;4.678;2023-04-19T12:10:06;10.1;;;4.9;;
25443;SDS011;13368;52.346;4.678;2023-04-19T12:15:00;9.1;;;5.2;;
25443;SDS011;13368;52.346;4.678;2023-04-19T12:20:00;6.3;;;4.9;;
25443;SDS011;13368;52.346;4.678;2023-04-19T12:25:00;9.0;;;5.7;;
25443;SDS011;13368;52.346;4.678;2023-04-19T12:30:00;9.5;;;5.4;;
25443;SDS011;13368;52.346;4.678;2023-04-19T12:35:00;11.8;;;5.6;;
25443;SDS011;13368;52.346;4.678;2023-04-19T12:40:00;9.0;;;5.6;;
25443;SDS011;13368;52.346;4.678;2023-04-19T12:45:00;9.5;;;5.8;;
25443;SDS011;13368;52.346;4.678;2023-04-19T12:50:00;7.3;;;4.7;;
25443;SDS011;13368;52.346;4.678;2023-04-19T12:55:00;8.7;;;5.2;;
25443;SDS011;13368;52.346;4.678;2023-04-19T13:00:00;9.5;;;4.6;;
25443;SDS011;13368;52.346;4.678;2023-04-19T13:05:00;6.8;;;4.4;;
25443;SDS011;13368;52.346;4.678;2023-04-19T13:10:00;9.2;;;4.5;;
25443;SDS011;13368;52.346;4.678;2023-04-19T13:15:00;6.1;;;4.7;;
25443;SDS011;13368;52.346;4.678;2023-04-19T13:20:00;5.2;;;4.0;;
25443;SDS011;13368;52.346;4.678;2023-04-19T13:25:00;6.1;;;4.5;;
25443;SDS011;13368;52.346;4.678;2023-04-19T13:30:00;8.7;;;4.2;;
25443;SDS011;13368;52.346;4.678;2023-04-19T13:35:00;6.2;;;4.3;;
25443;SDS011;13368;52.346;4.678;2023-04-19T13:40:00;8.2;;;4.3;;
25443;SDS011;13368;52.346;4.678;2023-04-19T13:45:00;6.2;;;4.3;;
25443;SDS011;13368;52.346;4.678;2023-04-19T13:50:00;6.5;;;4.2;;
25443;SDS011;13368;52.346;4.678;2023-04-19T13:55:00;9.7;;;4.0;;
25443;SDS011;13368;52.346;4.678;2023-04-19T14:00:00;5.7;;;4.1;;
25443;SDS011;13368;52.346;4.678;2023-04-19T14:05:00;6.1;;;3.9;;
25443;SDS011;13368;52.346;4.678;2023-04-19T14:10:00;6.1;;;3.3;;
25443;SDS011;13368;52.346;4.678;2023-04-19T14:15:00;4.8;;;3.1;;
25443;SDS011;13368;52.346;4.678;2023-04-19T14:20:00;5.8;;;2.9;;
25443;SDS011;13368;52.346;4.678;2023-04-19T14:25:00;5.1;;;3.2;;
25443;SDS011;13368;52.346;4.678;2023-04-19T14:30:00;6.7;;;2.9;;
25443;SDS011;13368;52.346;4.678;2023-04-19T14:35:00;4.3;;;2.9;;
25443;SDS011;13368;52.346;4.678;2023-04-19T14:40:00;7.3;;;3.0;;
25443;SDS011;13368;52.346;4.678;2023-04-19T14:45:00;5.5;;;3.2;;
25443;SDS011;13368;52.346;4.678;2023-04-19T14:50:00;5.5;;;3.0;;
25443;SDS011;13368;52.346;4.678;2023-04-19T14:55:00;4.6;;;3.0;;
25443;SDS011;13368;52.346;4.678;2023-04-19T15:00:00;7.6;;;3.1;;
25443;SDS011;13368;52.346;4.678;2023-04-19T15:05:00;5.7;;;2.6;;
25443;SDS011;13368;52.346;4.678;2023-04-19T15:10:00;5.0;;;3.0;;
25443;SDS011;13368;52.346;4.678;2023-04-19T15:15:00;4.5;;;2.9;;
25443;SDS011;13368;52.346;4.678;2023-04-19T15:20:00;9.3;;;3.1;;
25443;SDS011;13368;52.346;4.678;2023-04-19T15:25:00;8.0;;;3.8;;
25443;SDS011;13368;52.346;4.678;2023-04-19T15:30:00;5.1;;;3.8;;
25443;SDS011;13368;52.346;4.678;2023-04-19T15:35:00;4.9;;;3.5;;
25443;SDS011;13368;52.346;4.678;2023-04-19T15:40:00;9.5;;;4.3;;
25443;SDS011;13368;52.346;4.678;2023-04-19T15:45:00;5.9;;;4.1;;
25443;SDS011;13368;52.346;4.678;2023-04-19T15:50:00;6.4;;;4.2;;
25443;SDS011;13368;52.346;4.678;2023-04-19T15:55:00;8.4;;;4.5;;
25443;SDS011;13368;52.346;4.678;2023-04-19T16:00:00;9.7;;;5.9;;
25443;SDS011;13368;52.346;4.678;2023-04-19T16:05:00;7.7;;;5.0;;
25443;SDS011;13368;52.346;4.678;2023-04-19T16:10:00;7.9;;;4.8;;
25443;SDS011;13368;52.346;4.678;2023-04-19T16:15:00;7.9;;;5.2;;
25443;SDS011;13368;52.346;4.678;2023-04-19T16:20:00;6.9;;;5.0;;
25443;SDS011;13368;52.346;4.678;2023-04-19T16:25:00;11.2;;;6.3;;
25443;SDS011;13368;52.346;4.678;2023-04-19T16:30:00;8.7;;;5.1;;
25443;SDS011;13368;52.346;4.678;2023-04-19T16:35:00;8.5;;;5.4;;
25443;SDS011;13368;52.346;4.678;2023-04-19T16:40:01;8.3;;;5.4;;
25443;SDS011;13368;52.346;4.678;2023-04-19T16:45:00;9.7;;;5.3;;
25443;SDS011;13368;52.346;4.678;2023-04-19T16:50:00;13.9;;;5.8;;
25443;SDS011;13368;52.346;4.678;2023-04-19T16:55:00;8.6;;;5.3;;
25443;SDS011;13368;52.346;4.678;2023-04-19T17:00:00;10.7;;;5.7;;
25443;SDS011;13368;52.346;4.678;2023-04-19T17:05:00;8.1;;;5.0;;
25443;SDS011;13368;52.346;4.678;2023-04-19T17:10:00;9.3;;;5.7;;
25443;SDS011;13368;52.346;4.678;2023-04-19T17:15:00;8.6;;;5.3;;
25443;SDS011;13368;52.346;4.678;2023-04-19T17:20:00;8.5;;;5.2;;
25443;SDS011;13368;52.346;4.678;2023-04-19T17:25:00;8.5;;;5.4;;
25443;SDS011;13368;52.346;4.678;2023-04-19T17:30:00;9.5;;;5.1;;
25443;SDS011;13368;52.346;4.678;2023-04-19T17:35:00;9.3;;;5.3;;
25443;SDS011;13368;52.346;4.678;2023-04-19T17:40:00;10.3;;;5.2;;
25443;SDS011;13368;52.346;4.678;2023-04-19T17:45:00;10.8;;;5.5;;
25443;SDS011;13368;52.346;4.678;2023-04-19T17:50:03;10.1;;;4.9;;
25443;SDS011;13368;52.346;4.678;2023-04-19T17:55:00;8.9;;;5.8;;
25443;SDS011;13368;52.346;4.678;2023-04-19T18:00:00;8.1;;;5.7;;
25443;SDS011;13368;52.346;4.678;2023-04-19T18:05:00;9.3;;;5.7;;
25443;SDS011;13368;52.346;4.678;2023-04-19T18:10:00;6.9;;;5.0;;
25443;SDS011;13368;52.346;4.678;2023-04-19T18:15:00;8.6;;;5.3;;
25443;SDS011;13368;52.346;4.678;2023-04-19T18:20:00;12.2;;;5.3;;
25443;SDS011;13368;52.346;4.678;2023-04-19T18:25:00;7.8;;;5.1;;
25443;SDS011;13368;52.346;4.678;2023-04-19T18:30:00;7.6;;;4.6;;
25443;SDS011;13368;52.346;4.678;2023-04-19T18:35:00;8.5;;;4.8;;
25443;SDS011;13368;52.346;4.678;2023-04-19T18:40:00;8.0;;;4.6;;
25443;SDS011;13368;52.346;4.678;2023-04-19T18:45:00;8.6;;;4.4;;
25443;SDS011;13368;52.346;4.678;2023-04-19T18:50:00;7.5;;;4.3;;
25443;SDS011;13368;52.346;4.678;2023-04-19T18:55:00;7.6;;;4.4;;
25443;SDS011;13368;52.346;4.678;2023-04-19T19:00:00;7.0;;;4.0;;
25443;SDS011;13368;52.346;4.678;2023-04-19T19:05:00;7.1;;;4.5;;
25443;SDS011;13368;52.346;4.678;2023-04-19T19:10:00;6.0;;;4.1;;
25443;SDS011;13368;52.346;4.678;2023-04-19T19:15:00;8.1;;;4.1;;
25443;SDS011;13368;52.346;4.678;2023-04-19T19:20:00;7.9;;;4.3;;
25443;SDS011;13368;52.346;4.678;2023-04-19T19:25:00;7.3;;;4.7;;
25443;SDS011;13368;52.346;4.678;2023-04-19T19:30:00;5.4;;;3.9;;
25443;SDS011;13368;52.346;4.678;2023-04-19T19:35:00;7.5;;;4.2;;
25443;SDS011;13368;52.346;4.678;2023-04-19T19:40:00;8.4;;;4.4;;
25443;SDS011;13368;52.346;4.678;2023-04-19T19:45:00;9.0;;;4.1;;
25443;SDS011;13368;52.346;4.678;2023-04-19T19:50:01;5.1;;;4.1;;
25443;SDS011;13368;52.346;4.678;2023-04-19T19:55:00;7.7;;;4.5;;
25443;SDS011;13368;52.346;4.678;2023-04-19T20:00:00;10.3;;;4.6;;
25443;SDS011;13368;52.346;4.678;2023-04-19T20:05:00;7.9;;;4.8;;
25443;SDS011;13368;52.346;4.678;2023-04-19T20:10:00;7.4;;;4.4;;
25443;SDS011;13368;52.346;4.678;2023-04-19T20:15:00;9.6;;;5.8;;
25443;SDS011;13368;52.346;4.678;2023-04-19T20:20:00;8.6;;;4.8;;
25443;SDS011;13368;52.346;4.678;2023-04-19T20:25:00;9.8;;;4.7;;
25443;SDS011;13368;52.346;4.678;2023-04-19T20:30:00;8.9;;;4.6;;
25443;SDS011;13368;52.346;4.678;2023-04-19T20:35:00;9.5;;;4.7;;
25443;SDS011;13368;52.346;4.678;2023-04-19T20:40:00;9.2;;;4.9;;
25443;SDS011;13368;52.346;4.678;2023-04-19T20:45:00;9.0;;;5.0;;
25443;SDS011;13368;52.346;4.678;2023-04-19T20:50:00;7.6;;;5.4;;
25443;SDS011;13368;52.346;4.678;2023-04-19T20:55:00;8.3;;;5.3;;
25443;SDS011;13368;52.346;4.678;2023-04-19T21:00:00;9.4;;;5.5;;
25443;SDS011;13368;52.346;4.678;2023-04-19T21:05:00;8.4;;;5.4;;
25443;SDS011;13368;52.346;4.678;2023-04-19T21:10:00;8.7;;;5.3;;
25443;SDS011;13368;52.346;4.678;2023-04-19T21:15:00;7.3;;;4.9;;
25443;SDS011;13368;52.346;4.678;2023-04-19T21:20:00;10.6;;;5.2;;
25443;SDS011;13368;52.346;4.678;2023-04-19T21:25:00;10.1;;;6.1;;
25443;SDS011;13368;52.346;4.678;2023-04-19T21:30:00;9.6;;;4.9;;
25443;SDS011;13368;52.346;4.678;2023-04-19T21:35:00;11.9;;;5.0;;
25443;SDS011;13368;52.346;4.678;2023-04-19T21:40:00;7.1;;;4.5;;
25443;SDS011;13368;52.346;4.678;2023-04-19T21:45:00;6.1;;;4.4;;
25443;SDS011;13368;52.346;4.678;2023-04-19T21:50:00;13.6;;;4.5;;
25443;SDS011;13368;52.346;4.678;2023-04-19T21:55:00;9.5;;;4.5;;
25443;SDS011;13368;52.346;4.678;2023-04-19T22:00:00;9.6;;;4.8;;
25443;SDS011;13368;52.346;4.678;2023-04-19T22:05:00;7.7;;;4.6;;
25443;SDS011;13368;52.346;4.678;2023-04-19T22:10:00;5.3;;;4.1;;
25443;SDS011;13368;52.346;4.678;2023-04-19T22:15:00;5.8;;;4.1;;
25443;SDS011;13368;52.346;4.678;2023-04-19T22:20:00;5.8;;;3.6;;
25443;SDS011;13368;52.346;4.678;2023-04-19T22:25:00;10.2;;;4.5;;
25443;SDS011;13368;52.346;4.678;2023-04-19T22:30:00;7.6;;;4.0;;
25443;SDS011;13368;52.346;4.678;2023-04-19T22:35:00;6.3;;;3.9;;
25443;SDS011;13368;52.346;4.678;2023-04-19T22:40:00;5.7;;;3.8;;
25443;SDS011;13368;52.346;4.678;2023-04-19T22:45:00;6.6;;;3.7;;
25443;SDS011;13368;52.346;4.678;2023-04-19T22:50:00;6.2;;;3.7;;
25443;SDS011;13368;52.346;4.678;2023-04-19T22:55:00;10.1;;;3.6;;
25443;SDS011;13368;52.346;4.678;2023-04-19T23:00:00;7.0;;;4.1;;
25443;SDS011;13368;52.346;4.678;2023-04-19T23:05:00;6.2;;;3.7;;
25443;SDS011;13368;52.346;4.678;2023-04-19T23:10:00;8.8;;;6.1;;
25443;SDS011;13368;52.346;4.678;2023-04-19T23:15:00;7.6;;;3.8;;
25443;SDS011;13368;52.346;4.678;2023-04-19T23:20:00;5.7;;;3.5;;
25443;SDS011;13368;52.346;4.678;2023-04-19T23:25:00;4.7;;;3.4;;
25443;SDS011;13368;52.346;4.678;2023-04-19T23:30:00;6.8;;;3.7;;
25443;SDS011;13368;52.346;4.678;2023-04-19T23:35:00;8.5;;;5.5;;
25443;SDS011;13368;52.346;4.678;2023-04-19T23:40:00;6.7;;;4.1;;
25443;SDS011;13368;52.346;4.678;2023-04-19T23:45:00;4.7;;;3.6;;
25443;SDS011;13368;52.346;4.678;2023-04-19T23:50:00;5.5;;;3.8;;
25443;SDS011;13368;52.346;4.678;2023-04-19T23:55:00;5.8;;;4.0;;
